createdAt,value
2017-07-19T00:00:18.348Z,99.99
2017-07-19T00:01:18.339Z,99.99
2017-07-19T00:02:18.321Z,99.99
2017-07-19T00:03:18.320Z,99.99
2017-07-19T00:04:18.315Z,99.99
2017-07-19T00:05:18.300Z,99.99
2017-07-19T00:06:18.283Z,99.99
2017-07-19T00:07:18.274Z,99.99
2017-07-19T00:08:18.261Z,99.99
2017-07-19T00:09:18.263Z,99.99
2017-07-19T00:10:18.251Z,99.99
2017-07-19T00:11:18.240Z,99.99
2017-07-19T00:12:18.226Z,99.99
2017-07-19T00:13:17.918Z,99.99
2017-07-19T00:14:18.209Z,99.99
2017-07-19T00:15:18.210Z,99.99
2017-07-19T00:16:18.189Z,99.99
2017-07-19T00:17:18.188Z,99.99
2017-07-19T00:18:18.172Z,99.99
2017-07-19T00:19:18.157Z,99.99
2017-07-19T00:20:18.157Z,99.99
2017-07-19T00:21:18.146Z,99.99
2017-07-19T00:22:18.133Z,99.99
2017-07-19T00:23:18.124Z,99.99
2017-07-19T00:24:18.118Z,99.99
2017-07-19T00:25:18.113Z,99.99
2017-07-19T00:26:18.087Z,99.99
2017-07-19T00:27:18.078Z,99.99
2017-07-19T00:28:18.078Z,99.99
2017-07-19T00:29:18.061Z,99.99
2017-07-19T00:30:18.048Z,99.99
2017-07-19T00:31:18.042Z,99.99
2017-07-19T00:32:18.030Z,99.99
2017-07-19T00:33:18.027Z,99.99
2017-07-19T00:34:18.011Z,99.99
2017-07-19T00:35:18.021Z,99.99
2017-07-19T00:36:17.997Z,99.99
2017-07-19T00:37:17.979Z,99.99
2017-07-19T00:38:17.968Z,99.99
2017-07-19T00:39:17.969Z,99.99
2017-07-19T00:40:17.965Z,99.99
2017-07-19T00:41:17.942Z,99.99
2017-07-19T00:42:17.938Z,99.99
2017-07-19T00:43:17.921Z,99.99
2017-07-19T00:44:17.912Z,99.99
2017-07-19T00:45:17.903Z,99.99
2017-07-19T00:46:17.893Z,99.99
2017-07-19T00:47:17.906Z,99.99
2017-07-19T00:48:17.881Z,99.99
2017-07-19T00:49:17.866Z,99.99
2017-07-19T00:50:17.853Z,99.99
2017-07-19T00:51:17.855Z,99.99
2017-07-19T00:52:17.837Z,99.99
2017-07-19T00:53:17.835Z,99.99
2017-07-19T00:54:17.822Z,99.99
2017-07-19T00:55:17.807Z,99.99
2017-07-19T00:56:17.795Z,99.99
2017-07-19T00:57:17.797Z,99.99
2017-07-19T00:58:31.665Z,99.99
2017-07-19T00:59:17.769Z,99.99
2017-07-19T01:00:17.765Z,99.99
2017-07-19T01:01:17.752Z,99.99
2017-07-19T01:02:17.748Z,99.99
2017-07-19T01:03:17.952Z,99.99
2017-07-19T01:04:17.612Z,99.99
2017-07-19T01:05:17.713Z,99.99
2017-07-19T01:06:17.410Z,99.99
2017-07-19T01:07:17.897Z,99.99
2017-07-19T01:08:17.389Z,99.99
2017-07-19T01:09:17.884Z,99.99
2017-07-19T01:10:17.667Z,99.99
2017-07-19T01:11:17.663Z,99.99
2017-07-19T01:12:17.653Z,99.99
2017-07-19T01:13:17.642Z,99.99
2017-07-19T01:14:17.627Z,99.99
2017-07-19T01:15:17.622Z,99.99
2017-07-19T01:16:17.612Z,99.99
2017-07-19T01:17:17.599Z,99.99
2017-07-19T01:18:17.596Z,99.99
2017-07-19T01:19:17.593Z,99.99
2017-07-19T01:20:17.576Z,99.99
2017-07-19T01:21:17.564Z,99.99
2017-07-19T01:22:17.556Z,99.99
2017-07-19T01:23:17.560Z,99.99
2017-07-19T01:24:17.536Z,99.99
2017-07-19T01:25:17.533Z,99.99
2017-07-19T01:26:17.526Z,99.99
2017-07-19T01:27:17.522Z,99.99
2017-07-19T01:28:17.202Z,99.99
2017-07-19T01:29:17.499Z,99.99
2017-07-19T01:30:17.490Z,99.99
2017-07-19T01:31:17.482Z,99.99
2017-07-19T01:32:17.478Z,99.99
2017-07-19T01:33:17.462Z,99.99
2017-07-19T01:34:17.450Z,99.99
2017-07-19T01:35:17.643Z,99.99
2017-07-19T01:36:17.430Z,99.99
2017-07-19T01:37:17.423Z,99.99
2017-07-19T01:38:17.413Z,99.99
2017-07-19T01:39:17.413Z,99.99
2017-07-19T01:40:17.601Z,99.99
2017-07-19T01:41:17.585Z,99.99
2017-07-19T01:42:17.381Z,99.99
2017-07-19T01:43:17.374Z,99.99
2017-07-19T01:44:17.358Z,99.99
2017-07-19T01:45:17.352Z,99.99
2017-07-19T01:46:17.549Z,99.99
2017-07-19T01:47:17.325Z,99.99
2017-07-19T01:48:17.319Z,99.99
2017-07-19T01:49:17.306Z,99.99
2017-07-19T01:50:17.320Z,99.99
2017-07-19T01:51:17.296Z,99.99
2017-07-19T01:52:17.283Z,99.99
2017-07-19T01:53:17.272Z,99.99
2017-07-19T01:54:17.282Z,99.99
2017-07-19T01:55:17.255Z,99.99
2017-07-19T01:56:17.247Z,99.99
2017-07-19T01:57:17.244Z,99.99
2017-07-19T01:58:17.225Z,99.99
2017-07-19T01:59:17.213Z,99.99
2017-07-19T02:00:17.211Z,99.99
2017-07-19T02:01:17.193Z,99.99
2017-07-19T02:02:17.183Z,99.99
2017-07-19T02:03:17.188Z,99.99
2017-07-19T02:04:17.165Z,99.99
2017-07-19T02:05:17.162Z,99.99
2017-07-19T02:06:17.157Z,99.99
2017-07-19T02:07:19.598Z,99.99
2017-07-19T02:08:17.134Z,99.99
2017-07-19T02:09:17.121Z,99.99
2017-07-19T02:10:17.110Z,99.99
2017-07-19T02:11:16.795Z,99.99
2017-07-19T02:12:19.647Z,99.99
2017-07-19T02:13:17.091Z,99.99
2017-07-19T02:14:17.081Z,99.99
2017-07-19T02:15:17.061Z,99.99
2017-07-19T02:16:17.063Z,99.99
2017-07-19T02:17:19.653Z,99.99
2017-07-19T02:18:17.262Z,99.99
2017-07-19T02:19:30.671Z,99.99
2017-07-19T02:20:17.016Z,99.99
2017-07-19T02:21:17.005Z,99.99
2017-07-19T02:22:20.657Z,99.99
2017-07-19T02:23:17.199Z,99.99
2017-07-19T02:24:16.983Z,99.99
2017-07-19T02:25:16.975Z,99.99
2017-07-19T02:26:20.618Z,99.99
2017-07-19T02:27:16.960Z,99.99
2017-07-19T02:28:16.959Z,99.99
2017-07-19T02:29:16.941Z,99.99
2017-07-19T02:30:16.933Z,99.99
2017-07-19T02:31:16.921Z,99.99
2017-07-19T02:32:16.913Z,99.99
2017-07-19T02:33:16.902Z,99.99
2017-07-19T02:34:16.885Z,99.99
2017-07-19T02:35:16.880Z,99.99
2017-07-19T02:36:16.874Z,99.99
2017-07-19T02:37:16.863Z,99.99
2017-07-19T02:38:16.849Z,99.99
2017-07-19T02:39:16.841Z,99.99
2017-07-19T02:40:16.840Z,99.99
2017-07-19T02:41:16.827Z,99.99
2017-07-19T02:42:16.817Z,99.99
2017-07-19T02:43:16.801Z,99.99
2017-07-19T02:44:16.792Z,99.99
2017-07-19T02:45:16.797Z,99.99
2017-07-19T02:46:16.787Z,99.99
2017-07-19T02:47:16.764Z,99.99
2017-07-19T02:48:16.759Z,99.99
2017-07-19T02:49:16.752Z,99.99
2017-07-19T02:50:16.740Z,99.99
2017-07-19T02:51:16.432Z,99.99
2017-07-19T02:52:16.421Z,99.99
2017-07-19T02:53:16.712Z,99.99
2017-07-19T02:54:16.397Z,99.99
2017-07-19T02:55:16.693Z,99.99
2017-07-19T02:56:16.595Z,99.99
2017-07-19T02:57:30.320Z,99.99
2017-07-19T02:58:16.363Z,99.99
2017-07-19T02:59:16.663Z,99.99
2017-07-19T03:00:16.348Z,99.99
2017-07-19T03:01:16.335Z,99.99
2017-07-19T03:02:16.326Z,99.99
2017-07-19T03:03:16.315Z,99.99
2017-07-19T03:04:16.308Z,99.99
2017-07-19T03:05:16.304Z,99.99
2017-07-19T03:06:16.589Z,99.99
2017-07-19T03:07:16.587Z,99.99
2017-07-19T03:08:16.579Z,99.99
2017-07-19T03:09:16.571Z,99.99
2017-07-19T03:10:16.554Z,99.99
2017-07-19T03:11:16.560Z,99.99
2017-07-19T03:12:16.532Z,99.99
2017-07-19T03:13:16.545Z,99.99
2017-07-19T03:14:16.512Z,99.99
2017-07-19T03:15:16.514Z,99.99
2017-07-19T03:16:16.502Z,99.99
2017-07-19T03:17:16.494Z,99.99
2017-07-19T03:18:16.476Z,99.99
2017-07-19T03:19:16.471Z,99.99
2017-07-19T03:20:16.464Z,99.99
2017-07-19T03:21:16.470Z,99.99
2017-07-19T03:22:16.134Z,99.99
2017-07-19T03:23:16.434Z,99.99
2017-07-19T03:24:16.417Z,99.99
2017-07-19T03:25:16.111Z,99.99
2017-07-19T03:26:16.401Z,99.99
2017-07-19T03:27:16.090Z,99.99
2017-07-19T03:28:16.079Z,99.99
2017-07-19T03:29:16.372Z,99.99
2017-07-19T03:30:16.082Z,99.99
2017-07-19T03:31:16.356Z,99.99
2017-07-19T03:32:16.349Z,99.99
2017-07-19T03:33:16.333Z,99.99
2017-07-19T03:34:16.526Z,99.99
2017-07-19T03:35:16.316Z,99.99
2017-07-19T03:36:16.309Z,99.99
2017-07-19T03:37:16.311Z,99.99
2017-07-19T03:38:16.292Z,99.99
2017-07-19T03:39:16.283Z,99.99
2017-07-19T03:40:16.273Z,99.99
2017-07-19T03:41:16.263Z,99.99
2017-07-19T03:42:16.256Z,99.99
2017-07-19T03:43:15.939Z,99.99
2017-07-19T03:44:16.236Z,99.99
2017-07-19T03:45:16.226Z,99.99
2017-07-19T03:46:15.911Z,99.99
2017-07-19T03:47:15.903Z,99.99
2017-07-19T03:48:15.891Z,99.99
2017-07-19T03:49:15.875Z,99.99
2017-07-19T03:50:16.178Z,99.99
2017-07-19T03:51:16.166Z,99.99
2017-07-19T03:52:16.159Z,99.99
2017-07-19T03:53:16.151Z,99.99
2017-07-19T03:54:16.137Z,99.99
2017-07-19T03:55:16.122Z,99.99
2017-07-19T03:56:16.118Z,99.99
2017-07-19T03:57:16.116Z,99.99
2017-07-19T03:58:16.093Z,99.99
2017-07-19T03:59:16.092Z,99.99
2017-07-19T04:00:16.076Z,99.99
2017-07-19T04:01:16.073Z,99.99
2017-07-19T04:02:16.060Z,99.99
2017-07-19T04:03:16.047Z,99.99
2017-07-19T04:04:16.051Z,99.99
2017-07-19T04:05:16.033Z,99.99
2017-07-19T04:06:16.019Z,99.99
2017-07-19T04:07:16.020Z,99.99
2017-07-19T04:08:16.005Z,99.99
2017-07-19T04:09:15.993Z,99.99
2017-07-19T04:10:15.982Z,99.99
2017-07-19T04:11:15.970Z,99.99
2017-07-19T04:12:15.958Z,99.99
2017-07-19T04:13:15.959Z,99.99
2017-07-19T04:14:15.965Z,99.99
2017-07-19T04:15:15.934Z,99.99
2017-07-19T04:16:15.919Z,99.99
2017-07-19T04:17:15.917Z,99.99
2017-07-19T04:18:15.910Z,99.99
2017-07-19T04:19:15.892Z,99.99
2017-07-19T04:20:15.881Z,99.99
2017-07-19T04:21:15.877Z,99.99
2017-07-19T04:22:15.870Z,99.99
2017-07-19T04:23:15.863Z,99.99
2017-07-19T04:24:15.538Z,99.99
2017-07-19T04:25:15.833Z,99.99
2017-07-19T04:26:15.830Z,99.99
2017-07-19T04:27:15.813Z,99.99
2017-07-19T04:28:15.801Z,99.99
2017-07-19T04:29:15.801Z,99.99
2017-07-19T04:30:15.484Z,99.99
2017-07-19T04:31:15.769Z,99.99
2017-07-19T04:32:15.769Z,99.99
2017-07-19T04:33:15.751Z,99.99
2017-07-19T04:34:15.742Z,99.99
2017-07-19T04:35:15.743Z,99.99
2017-07-19T04:36:15.724Z,99.99
2017-07-19T04:37:15.719Z,99.99
2017-07-19T04:38:15.400Z,99.99
2017-07-19T04:39:15.398Z,99.99
2017-07-19T04:40:15.686Z,99.99
2017-07-19T04:41:15.681Z,99.99
2017-07-19T04:42:15.674Z,99.99
2017-07-19T04:43:15.659Z,99.99
2017-07-19T04:44:15.652Z,99.99
2017-07-19T04:45:15.649Z,99.99
2017-07-19T04:46:15.627Z,99.99
2017-07-19T04:47:15.628Z,99.99
2017-07-19T04:48:15.606Z,99.99
2017-07-19T04:49:15.600Z,99.99
2017-07-19T04:50:15.284Z,99.99
2017-07-19T04:51:15.595Z,99.99
2017-07-19T04:52:15.565Z,99.99
2017-07-19T04:53:15.559Z,99.99
2017-07-19T04:54:15.547Z,99.99
2017-07-19T04:55:15.534Z,99.99
2017-07-19T04:56:15.524Z,99.99
2017-07-19T04:57:15.520Z,99.99
2017-07-19T04:58:15.507Z,99.99
2017-07-19T04:59:15.497Z,99.99
2017-07-19T05:00:15.486Z,99.99
2017-07-19T05:01:15.477Z,99.99
2017-07-19T05:02:15.468Z,99.99
2017-07-19T05:03:15.467Z,99.99
2017-07-19T05:04:15.458Z,99.99
2017-07-19T05:05:15.446Z,99.99
2017-07-19T05:06:15.438Z,99.99
2017-07-19T05:07:15.427Z,99.99
2017-07-19T05:08:15.417Z,99.99
2017-07-19T05:09:15.407Z,99.99
2017-07-19T05:10:15.394Z,99.99
2017-07-19T05:11:15.388Z,99.99
2017-07-19T05:12:15.385Z,99.99
2017-07-19T05:13:15.369Z,99.99
2017-07-19T05:14:15.368Z,99.99
2017-07-19T05:15:15.345Z,99.99
2017-07-19T05:16:15.345Z,99.99
2017-07-19T05:17:15.335Z,99.99
2017-07-19T05:18:15.326Z,99.99
2017-07-19T05:19:15.307Z,99.99
2017-07-19T05:20:15.312Z,99.99
2017-07-19T05:21:15.293Z,99.99
2017-07-19T05:22:15.287Z,99.99
2017-07-19T05:23:15.284Z,99.99
2017-07-19T05:24:15.291Z,99.99
2017-07-19T05:25:15.257Z,99.99
2017-07-19T05:26:14.948Z,99.99
2017-07-19T05:27:15.242Z,99.99
2017-07-19T05:28:15.231Z,99.99
2017-07-19T05:29:15.252Z,99.99
2017-07-19T05:30:15.221Z,99.99
2017-07-19T05:31:15.216Z,99.99
2017-07-19T05:32:15.209Z,99.99
2017-07-19T05:33:15.193Z,99.99
2017-07-19T05:34:15.189Z,99.99
2017-07-19T05:35:15.189Z,99.99
2017-07-19T05:36:15.173Z,99.99
2017-07-19T05:37:15.169Z,99.99
2017-07-19T05:38:15.169Z,99.99
2017-07-19T05:39:15.156Z,99.99
2017-07-19T05:40:15.153Z,99.99
2017-07-19T05:41:14.846Z,99.99
2017-07-19T05:42:14.828Z,99.99
2017-07-19T05:43:14.828Z,99.99
2017-07-19T05:44:15.118Z,99.99
2017-07-19T05:45:15.114Z,99.99
2017-07-19T05:46:14.805Z,99.99
2017-07-19T05:47:15.095Z,99.99
2017-07-19T05:48:15.095Z,99.99
2017-07-19T05:49:15.089Z,99.99
2017-07-19T05:50:15.103Z,99.99
2017-07-19T05:51:15.075Z,99.99
2017-07-19T05:52:15.059Z,99.99
2017-07-19T05:53:15.053Z,99.99
2017-07-19T05:54:15.055Z,99.99
2017-07-19T05:55:14.736Z,99.99
2017-07-19T05:56:15.036Z,99.99
2017-07-19T05:57:15.024Z,99.99
2017-07-19T05:58:15.016Z,99.99
2017-07-19T05:59:15.018Z,99.99
2017-07-19T06:00:14.702Z,99.99
2017-07-19T06:01:14.992Z,99.99
2017-07-19T06:02:14.692Z,99.99
2017-07-19T06:03:14.985Z,99.99
2017-07-19T06:04:14.673Z,99.99
2017-07-19T06:05:14.663Z,99.99
2017-07-19T06:06:14.959Z,99.99
2017-07-19T06:07:14.642Z,99.99
2017-07-19T06:08:14.639Z,99.99
2017-07-19T06:09:14.938Z,99.99
2017-07-19T06:10:14.926Z,99.99
2017-07-19T06:11:14.912Z,99.99
2017-07-19T06:12:14.903Z,99.99
2017-07-19T06:13:14.900Z,99.99
2017-07-19T06:14:14.882Z,99.99
2017-07-19T06:15:14.888Z,99.99
2017-07-19T06:16:14.863Z,99.99
2017-07-19T06:17:14.858Z,99.99
2017-07-19T06:18:14.847Z,99.99
2017-07-19T06:19:14.536Z,99.99
2017-07-19T06:20:14.837Z,99.99
2017-07-19T06:21:14.822Z,99.99
2017-07-19T06:22:14.820Z,99.99
2017-07-19T06:23:14.811Z,99.99
2017-07-19T06:24:17.806Z,99.99
2017-07-19T06:25:14.785Z,99.99
2017-07-19T06:26:14.787Z,99.99
2017-07-19T06:27:14.464Z,99.99
2017-07-19T06:28:14.766Z,99.99
2017-07-19T06:29:20.507Z,99.99
2017-07-19T06:30:17.747Z,99.99
2017-07-19T06:31:14.432Z,99.99
2017-07-19T06:32:14.723Z,99.99
2017-07-19T06:33:14.428Z,99.99
2017-07-19T06:34:14.411Z,99.99
2017-07-19T06:35:14.702Z,99.99
2017-07-19T06:36:14.702Z,99.99
2017-07-19T06:37:14.392Z,99.99
2017-07-19T06:38:14.376Z,99.99
2017-07-19T06:39:14.670Z,99.99
2017-07-19T06:40:14.359Z,99.99
2017-07-19T06:41:14.342Z,99.99
2017-07-19T06:42:14.338Z,99.99
2017-07-19T06:43:14.629Z,99.99
2017-07-19T06:44:14.639Z,99.99
2017-07-19T06:45:14.625Z,99.99
2017-07-19T06:46:14.610Z,99.99
2017-07-19T06:47:14.600Z,99.99
2017-07-19T06:48:14.588Z,99.99
2017-07-19T06:49:14.589Z,99.99
2017-07-19T06:50:14.576Z,99.99
2017-07-19T06:51:14.563Z,99.99
2017-07-19T06:52:14.563Z,99.99
2017-07-19T06:53:14.553Z,99.99
2017-07-19T06:54:14.539Z,99.99
2017-07-19T06:55:14.537Z,99.99
2017-07-19T06:56:14.554Z,99.99
2017-07-19T06:57:14.220Z,99.99
2017-07-19T06:58:14.516Z,99.99
2017-07-19T06:59:14.197Z,99.99
2017-07-19T07:00:14.494Z,99.99
2017-07-19T07:01:14.192Z,99.99
2017-07-19T07:02:14.484Z,99.99
2017-07-19T07:03:14.473Z,99.99
2017-07-19T07:04:14.162Z,99.99
2017-07-19T07:05:14.453Z,99.99
2017-07-19T07:06:14.451Z,99.99
2017-07-19T07:07:14.439Z,99.99
2017-07-19T07:08:14.432Z,99.99
2017-07-19T07:09:14.422Z,99.99
2017-07-19T07:10:14.116Z,99.99
2017-07-19T07:11:14.411Z,99.99
2017-07-19T07:12:14.404Z,99.99
2017-07-19T07:13:14.395Z,99.99
2017-07-19T07:14:14.379Z,99.99
2017-07-19T07:15:14.381Z,99.99
2017-07-19T07:16:14.367Z,99.99
2017-07-19T07:17:14.360Z,99.99
2017-07-19T07:18:14.352Z,99.99
2017-07-19T07:19:14.341Z,99.99
2017-07-19T07:20:14.335Z,99.99
2017-07-19T07:21:14.342Z,99.99
2017-07-19T07:22:14.327Z,99.99
2017-07-19T07:23:14.318Z,99.99
2017-07-19T07:24:14.307Z,99.99
2017-07-19T07:25:14.000Z,99.99
2017-07-19T07:26:14.298Z,99.99
2017-07-19T07:27:13.979Z,99.99
2017-07-19T07:28:14.281Z,99.75
2017-07-19T07:29:14.266Z,99.18
2017-07-19T07:30:14.260Z,99.27
2017-07-19T07:31:13.949Z,99.37
2017-07-19T07:32:14.247Z,98.99
2017-07-19T07:33:14.246Z,98.75
2017-07-19T07:34:14.228Z,98.47
2017-07-19T07:35:14.228Z,99.23
2017-07-19T07:36:14.234Z,99.04
2017-07-19T07:37:14.216Z,98.94
2017-07-19T07:38:13.901Z,98.56
2017-07-19T07:39:13.889Z,99.8
2017-07-19T07:40:14.185Z,99.66
2017-07-19T07:41:13.882Z,99.99
2017-07-19T07:42:14.172Z,99.75
2017-07-19T07:43:14.164Z,99.08
2017-07-19T07:44:14.156Z,99.13
2017-07-19T07:45:14.149Z,98.85
2017-07-19T07:46:14.143Z,99.23
2017-07-19T07:47:14.144Z,99.04
2017-07-19T07:48:14.138Z,99.32
2017-07-19T07:49:14.128Z,99.95
2017-07-19T07:50:14.124Z,99.99
2017-07-19T07:51:14.102Z,99.99
2017-07-19T07:52:14.099Z,99.99
2017-07-19T07:53:14.097Z,99.8
2017-07-19T07:54:14.090Z,99.18
2017-07-19T07:55:14.083Z,98.9
2017-07-19T07:56:14.068Z,98.99
2017-07-19T07:57:14.070Z,99.56
2017-07-19T07:58:14.061Z,99.99
2017-07-19T07:59:14.056Z,99.99
2017-07-19T08:00:14.048Z,99.99
2017-07-19T08:01:14.029Z,99.99
2017-07-19T08:02:14.031Z,99.99
2017-07-19T08:03:14.020Z,98.36
2017-07-19T08:04:14.016Z,97.37
2017-07-19T08:05:14.006Z,96.56
2017-07-19T08:06:13.993Z,96.94
2017-07-19T08:07:13.993Z,97.61
2017-07-19T08:08:13.974Z,97.42
2017-07-19T08:09:13.973Z,98.03
2017-07-19T08:10:13.962Z,98.13
2017-07-19T08:11:13.961Z,99.08
2017-07-19T08:12:13.647Z,99.37
2017-07-19T08:13:13.937Z,99.89
2017-07-19T08:14:13.937Z,99.41
2017-07-19T08:15:13.918Z,99.04
2017-07-19T08:16:13.920Z,99.04
2017-07-19T08:17:13.905Z,98.8
2017-07-19T08:18:13.904Z,98.36
2017-07-19T08:19:13.885Z,98.13
2017-07-19T08:20:13.886Z,97.46
2017-07-19T08:21:13.876Z,96.03
2017-07-19T08:22:13.867Z,95.94
2017-07-19T08:23:13.853Z,94.51
2017-07-19T08:24:13.855Z,94.27
2017-07-19T08:25:13.845Z,94.41
2017-07-19T08:26:13.835Z,94.41
2017-07-19T08:27:13.834Z,96.03
2017-07-19T08:28:13.820Z,95.84
2017-07-19T08:29:13.506Z,95.94
2017-07-19T08:30:13.802Z,96.42
2017-07-19T08:31:13.792Z,96.03
2017-07-19T08:32:13.791Z,97.08
2017-07-19T08:33:13.786Z,96.94
2017-07-19T08:34:13.791Z,97.56
2017-07-19T08:35:13.772Z,98.18
2017-07-19T08:36:13.757Z,98.18
2017-07-19T08:37:13.758Z,96.84
2017-07-19T08:38:13.750Z,97.56
2017-07-19T08:39:13.738Z,98.52
2017-07-19T08:40:13.737Z,99.43
2017-07-19T08:41:13.735Z,98.9
2017-07-19T08:42:13.719Z,98.28
2017-07-19T08:43:13.721Z,97.8
2017-07-19T08:44:13.704Z,99.28
2017-07-19T08:45:13.703Z,98.57
2017-07-19T08:46:13.691Z,98.61
2017-07-19T08:47:13.685Z,99.19
2017-07-19T08:48:13.673Z,99.48
2017-07-19T08:49:13.671Z,99.14
2017-07-19T08:50:13.360Z,98.04
2017-07-19T08:51:13.663Z,98.04
2017-07-19T08:52:13.652Z,98.9
2017-07-19T08:53:13.649Z,99.99
2017-07-19T08:54:13.643Z,99.99
2017-07-19T08:55:13.632Z,99.99
2017-07-19T08:56:13.630Z,99.99
2017-07-19T08:57:13.616Z,99.99
2017-07-19T08:58:13.306Z,99.99
2017-07-19T08:59:13.607Z,99.99
2017-07-19T09:00:13.595Z,99.99
2017-07-19T09:01:13.588Z,99.99
2017-07-19T09:02:13.593Z,99.99
2017-07-19T09:03:13.576Z,99.99
2017-07-19T09:04:13.577Z,99.99
2017-07-19T09:05:13.560Z,99.99
2017-07-19T09:06:13.563Z,99.99
2017-07-19T09:07:13.609Z,99.99
2017-07-19T09:08:13.541Z,99.99
2017-07-19T09:09:13.579Z,99.99
2017-07-19T09:10:13.531Z,99.99
2017-07-19T09:11:13.524Z,99.99
2017-07-19T09:12:13.209Z,99.99
2017-07-19T09:13:13.506Z,99.99
2017-07-19T09:14:13.497Z,99.99
2017-07-19T09:15:13.492Z,99.99
2017-07-19T09:16:13.487Z,99.99
2017-07-19T09:17:13.482Z,99.99
2017-07-19T09:18:13.475Z,99.95
2017-07-19T09:19:13.465Z,99.95
2017-07-19T09:20:13.447Z,99.99
2017-07-19T09:21:13.442Z,99.99
2017-07-19T09:22:13.439Z,99.99
2017-07-19T09:23:13.433Z,99.99
2017-07-19T09:24:13.420Z,99.9
2017-07-19T09:25:13.422Z,99.99
2017-07-19T09:26:13.414Z,99.76
2017-07-19T09:27:13.398Z,99.43
2017-07-19T09:28:13.400Z,98.24
2017-07-19T09:29:13.400Z,97.56
2017-07-19T09:30:13.385Z,97.66
2017-07-19T09:31:13.390Z,98.05
2017-07-19T09:32:13.374Z,98.86
2017-07-19T09:33:13.361Z,99.99
2017-07-19T09:34:13.359Z,99.99
2017-07-19T09:35:13.367Z,99.99
2017-07-19T09:36:13.351Z,99.99
2017-07-19T09:37:13.333Z,99.99
2017-07-19T09:38:13.330Z,99.99
2017-07-19T09:39:13.326Z,99.99
2017-07-19T09:40:13.312Z,99.99
2017-07-19T09:41:13.318Z,99.99
2017-07-19T09:42:13.312Z,99.99
2017-07-19T09:43:13.304Z,99.99
2017-07-19T09:44:13.296Z,99.99
2017-07-19T09:45:13.293Z,99.99
2017-07-19T09:46:12.973Z,99.99
2017-07-19T09:47:12.964Z,99.15
2017-07-19T09:48:13.271Z,99.99
2017-07-19T09:49:13.261Z,99.99
2017-07-19T09:50:13.257Z,99.99
2017-07-19T09:51:13.245Z,99.99
2017-07-19T09:52:12.937Z,99.99
2017-07-19T09:53:13.236Z,99.99
2017-07-19T09:54:13.225Z,99.99
2017-07-19T09:55:13.228Z,99.99
2017-07-19T09:56:13.221Z,99.99
2017-07-19T09:57:13.210Z,99.99
2017-07-19T09:58:13.205Z,99.99
2017-07-19T09:59:13.200Z,99.99
2017-07-19T10:00:13.184Z,99.99
2017-07-19T10:01:13.171Z,99.99
2017-07-19T10:02:13.166Z,99.99
2017-07-19T10:03:13.161Z,99.99
2017-07-19T10:04:13.148Z,99.99
2017-07-19T10:05:13.151Z,99.99
2017-07-19T10:06:13.132Z,99.99
2017-07-19T10:07:13.134Z,99.99
2017-07-19T10:08:13.119Z,99.99
2017-07-19T10:09:13.119Z,99.99
2017-07-19T10:10:13.102Z,99.99
2017-07-19T10:11:13.093Z,99.99
2017-07-19T10:12:13.084Z,99.99
2017-07-19T10:13:13.082Z,99.99
2017-07-19T10:14:13.080Z,99.99
2017-07-19T10:15:13.062Z,99.99
2017-07-19T10:16:13.052Z,99.99
2017-07-19T10:17:13.059Z,99.99
2017-07-19T10:18:13.040Z,99.99
2017-07-19T10:19:13.047Z,99.99
2017-07-19T10:20:13.034Z,99.99
2017-07-19T10:21:13.022Z,99.99
2017-07-19T10:22:13.028Z,99.99
2017-07-19T10:23:13.020Z,99.99
2017-07-19T10:24:12.995Z,99.99
2017-07-19T10:25:12.989Z,99.99
2017-07-19T10:26:12.978Z,99.99
2017-07-19T10:27:12.980Z,99.99
2017-07-19T10:28:12.967Z,99.99
2017-07-19T10:29:12.966Z,99.99
2017-07-19T10:30:12.953Z,99.99
2017-07-19T10:31:12.963Z,99.99
2017-07-19T10:32:12.942Z,99.99
2017-07-19T10:33:12.941Z,99.99
2017-07-19T10:34:12.935Z,99.99
2017-07-19T10:35:12.932Z,99.99
2017-07-19T10:36:12.917Z,99.99
2017-07-19T10:37:12.912Z,99.99
2017-07-19T10:38:12.904Z,99.99
2017-07-19T10:39:12.897Z,99.99
2017-07-19T10:40:12.899Z,99.99
2017-07-19T10:41:12.899Z,99.99
2017-07-19T10:42:12.899Z,99.99
2017-07-19T10:43:12.871Z,99.99
2017-07-19T10:44:12.874Z,99.99
2017-07-19T10:45:12.868Z,99.99
2017-07-19T10:46:12.865Z,99.99
2017-07-19T10:47:12.854Z,99.99
2017-07-19T10:48:12.846Z,99.99
2017-07-19T10:49:12.841Z,99.99
2017-07-19T10:50:12.841Z,99.99
2017-07-19T10:51:12.827Z,99.99
2017-07-19T10:52:12.831Z,99.99
2017-07-19T10:53:12.815Z,99.99
2017-07-19T10:54:12.817Z,99.99
2017-07-19T10:55:12.509Z,99.99
2017-07-19T10:56:12.811Z,99.99
2017-07-19T10:57:12.796Z,99.99
2017-07-19T10:58:12.490Z,99.99
2017-07-19T10:59:12.788Z,99.99
2017-07-19T11:00:12.780Z,99.99
2017-07-19T11:01:12.777Z,99.99
2017-07-19T11:02:12.777Z,99.99
2017-07-19T11:03:12.778Z,99.99
2017-07-19T11:04:12.464Z,99.99
2017-07-19T11:05:12.767Z,99.99
2017-07-19T11:06:12.754Z,99.99
2017-07-19T11:07:12.750Z,99.99
2017-07-19T11:08:12.784Z,99.99
2017-07-19T11:09:12.737Z,99.99
2017-07-19T11:10:12.744Z,99.99
2017-07-19T11:11:12.731Z,99.99
2017-07-19T11:12:12.736Z,99.99
2017-07-19T11:13:12.730Z,99.99
2017-07-19T11:14:12.720Z,99.99
2017-07-19T11:15:12.714Z,99.99
2017-07-19T11:16:12.711Z,99.99
2017-07-19T11:17:12.709Z,99.99
2017-07-19T11:18:12.409Z,99.99
2017-07-19T11:19:12.711Z,99.99
2017-07-19T11:20:12.706Z,99.99
2017-07-19T11:21:12.701Z,99.99
2017-07-19T11:22:12.690Z,99.99
2017-07-19T11:23:12.684Z,99.99
2017-07-19T11:24:12.681Z,99.99
2017-07-19T11:25:12.378Z,99.99
2017-07-19T11:26:12.681Z,99.99
2017-07-19T11:27:12.372Z,99.99
2017-07-19T11:28:12.664Z,99.99
2017-07-19T11:29:12.670Z,99.99
2017-07-19T11:30:12.358Z,99.99
2017-07-19T11:31:12.700Z,99.99
2017-07-19T11:32:12.344Z,99.99
2017-07-19T11:33:12.342Z,99.99
2017-07-19T11:34:12.334Z,99.99
2017-07-19T11:35:12.635Z,99.99
2017-07-19T11:36:12.637Z,99.99
2017-07-19T11:37:12.636Z,99.99
2017-07-19T11:38:12.627Z,99.99
2017-07-19T11:39:12.624Z,99.99
2017-07-19T11:40:12.614Z,99.99
2017-07-19T11:41:12.605Z,99.99
2017-07-19T11:42:12.601Z,99.99
2017-07-19T11:43:12.602Z,99.99
2017-07-19T11:44:12.590Z,99.99
2017-07-19T11:45:12.596Z,99.99
2017-07-19T11:46:12.593Z,99.99
2017-07-19T11:47:12.578Z,99.99
2017-07-19T11:48:12.581Z,99.99
2017-07-19T11:49:12.567Z,99.99
2017-07-19T11:50:12.575Z,99.99
2017-07-19T11:51:12.567Z,99.99
2017-07-19T11:52:12.557Z,99.99
2017-07-19T11:53:12.558Z,99.99
2017-07-19T11:54:12.556Z,99.99
2017-07-19T11:55:12.553Z,99.99
2017-07-19T11:56:12.540Z,99.99
2017-07-19T11:57:12.543Z,99.99
2017-07-19T11:58:12.546Z,99.99
2017-07-19T11:59:12.529Z,99.99
2017-07-19T12:00:12.534Z,99.99
2017-07-19T12:01:12.527Z,99.99
2017-07-19T12:02:12.524Z,99.99
2017-07-19T12:03:12.519Z,99.99
2017-07-19T12:04:12.516Z,99.99
2017-07-19T12:05:12.520Z,99.99
2017-07-19T12:06:12.519Z,99.99
2017-07-19T12:07:12.519Z,99.99
2017-07-19T12:08:12.205Z,99.99
2017-07-19T12:09:12.512Z,99.99
2017-07-19T12:10:12.505Z,99.99
2017-07-19T12:11:12.501Z,99.99
2017-07-19T12:12:12.511Z,99.99
2017-07-19T12:13:12.498Z,99.99
2017-07-19T12:14:12.482Z,99.99
2017-07-19T12:15:12.488Z,99.99
2017-07-19T12:16:12.176Z,99.99
2017-07-19T12:17:12.479Z,99.99
2017-07-19T12:18:12.172Z,99.99
2017-07-19T12:19:12.475Z,99.99
2017-07-19T12:20:12.465Z,99.99
2017-07-19T12:21:12.471Z,99.99
2017-07-19T12:22:12.467Z,99.99
2017-07-19T12:23:12.466Z,99.99
2017-07-19T12:24:12.155Z,99.99
2017-07-19T12:25:12.462Z,99.99
2017-07-19T12:26:12.459Z,99.99
2017-07-19T12:27:12.450Z,99.99
2017-07-19T12:28:12.445Z,99.99
2017-07-19T12:29:12.449Z,99.99
2017-07-19T12:30:12.434Z,99.99
2017-07-19T12:31:12.436Z,99.99
2017-07-19T12:32:12.133Z,99.99
2017-07-19T12:33:12.431Z,99.99
2017-07-19T12:34:12.430Z,99.99
2017-07-19T12:35:12.424Z,99.99
2017-07-19T12:36:12.117Z,99.99
2017-07-19T12:37:12.412Z,99.99
2017-07-19T12:38:12.112Z,99.99
2017-07-19T12:39:12.413Z,99.99
2017-07-19T12:40:12.104Z,99.99
2017-07-19T12:41:12.100Z,99.99
2017-07-19T12:42:12.397Z,99.99
2017-07-19T12:43:12.398Z,99.99
2017-07-19T12:44:12.398Z,99.99
2017-07-19T12:45:12.399Z,99.99
2017-07-19T12:46:12.395Z,99.99
2017-07-19T12:47:12.390Z,99.99
2017-07-19T12:48:12.389Z,99.99
2017-07-19T12:49:12.080Z,99.99
2017-07-19T12:50:12.382Z,99.99
2017-07-19T12:51:12.065Z,99.99
2017-07-19T12:52:12.372Z,99.99